createdAt,value
2023-11-15T00:02:42.860Z,101382.25
2023-11-15T00:08:55.035Z,101370.28
2023-11-15T00:11:43.730Z,101361.25
2023-11-15T00:30:57.820Z,101340.75
2023-11-15T00:32:47.255Z,101333.09
2023-11-15T00:35:40.247Z,101334.91
2023-11-15T01:50:15.543Z,101318.75
2023-11-15T01:52:45.756Z,101317.63
2023-11-15T01:55:45.201Z,101329.59
2023-11-15T02:05:15.434Z,101331.91
2023-11-15T02:06:17.924Z,101334.59
2023-11-15T02:08:19.820Z,101335.44
2023-11-15T02:18:48.851Z,101337.22
2023-11-15T02:21:24.332Z,101331.41
2023-11-15T02:50:47.680Z,101327.00
2023-11-15T03:31:11.736Z,101318.50
2023-11-15T03:33:47.419Z,101317.06
2023-11-15T03:39:45.936Z,101310.69
2023-11-15T03:42:43.644Z,101305.94
2023-11-15T03:45:47.955Z,101305.13
2023-11-15T03:54:52.872Z,101310.09
2023-11-15T03:58:12.758Z,101307.69
2023-11-15T04:01:56.894Z,101312.34
2023-11-15T04:11:31.796Z,101310.34
2023-11-15T04:33:13.594Z,101324.50
2023-11-15T04:49:13.342Z,101324.69
2023-11-15T04:51:55.809Z,101331.75
2023-11-15T04:55:14.430Z,101333.88
2023-11-15T05:02:49.647Z,101345.63
2023-11-15T05:12:16.255Z,101353.22
2023-11-15T05:15:22.420Z,101357.03
2023-11-15T05:40:23.132Z,101374.56
2023-11-15T05:50:07.322Z,101376.81
2023-11-15T06:06:37.966Z,101382.38
2023-11-15T06:38:42.292Z,101355.78
2023-11-15T06:48:41.455Z,101341.59
2023-11-15T06:59:36.432Z,101342.53
2023-11-15T07:18:36.378Z,101311.13
2023-11-15T07:38:42.483Z,101303.84
2023-11-15T07:41:38.331Z,101297.53
2023-11-15T07:44:15.356Z,101302.56
2023-11-15T07:53:38.630Z,101299.31
2023-11-15T07:59:36.216Z,101295.50
2023-11-15T08:02:04.914Z,101289.31
2023-11-15T08:05:03.414Z,101293.19
2023-11-15T08:08:39.208Z,101289.84
2023-11-15T08:33:11.186Z,101280.91
2023-11-15T08:36:05.841Z,101273.44
2023-11-15T08:39:20.971Z,101263.06
2023-11-15T08:46:11.750Z,101259.72
2023-11-15T09:11:07.795Z,101252.88
2023-11-15T09:14:11.248Z,101255.41
2023-11-15T09:19:55.414Z,101251.78
2023-11-15T09:23:18.659Z,101241.94
2023-11-15T09:26:33.934Z,101245.34
2023-11-15T09:35:06.664Z,101248.03
2023-11-15T09:41:13.787Z,101244.63
2023-11-15T09:45:17.176Z,101242.41
2023-11-15T09:52:16.568Z,101240.69
2023-11-15T10:02:37.175Z,101230.19
2023-11-15T10:22:37.419Z,101209.28
2023-11-15T10:32:40.412Z,101200.28
2023-11-15T10:41:40.247Z,101191.34
2023-11-15T10:44:35.221Z,101186.00
2023-11-15T10:47:38.161Z,101189.44
2023-11-15T10:50:42.617Z,101184.94
2023-11-15T11:04:39.505Z,101166.34
2023-11-15T11:07:59.368Z,101171.56
2023-11-15T11:14:44.750Z,101150.59
2023-11-15T11:18:31.549Z,101154.97
2023-11-15T11:25:02.742Z,101150.59
2023-11-15T11:30:47.512Z,101110.44
2023-11-15T11:34:34.101Z,101116.28
2023-11-15T11:37:05.338Z,101117.34
2023-11-15T11:46:33.942Z,101110.09
2023-11-15T11:49:02.830Z,101107.47
2023-11-15T12:00:59.099Z,101094.28
2023-11-15T12:13:06.582Z,101077.03
2023-11-15T12:23:01.096Z,101055.78
2023-11-15T12:29:03.273Z,101041.06
2023-11-15T12:32:07.904Z,101042.78
2023-11-15T12:36:00.223Z,101054.34
2023-11-15T12:38:29.674Z,101050.56
2023-11-15T12:41:08.074Z,101036.72
2023-11-15T12:52:55.039Z,101033.41
2023-11-15T12:56:15.817Z,101046.88
2023-11-15T13:14:05.801Z,101040.69
2023-11-15T13:22:03.663Z,101023.56
2023-11-15T13:25:01.523Z,101003.59
2023-11-15T13:27:31.989Z,101009.69
2023-11-15T13:33:32.941Z,101028.25
2023-11-15T13:38:54.591Z,101027.41
2023-11-15T13:58:27.523Z,101033.72
2023-11-15T14:12:28.260Z,101030.25
2023-11-15T14:15:27.773Z,101025.16
2023-11-15T14:18:32.086Z,101029.66
2023-11-15T14:21:29.649Z,101029.97
2023-11-15T14:23:59.278Z,101035.66
2023-11-15T14:26:27.659Z,101045.59
2023-11-15T14:32:29.892Z,101043.66
2023-11-15T14:35:20.564Z,101062.69
2023-11-15T14:37:57.270Z,101063.75
2023-11-15T14:43:28.557Z,101068.03
2023-11-15T14:45:57.590Z,101069.97
2023-11-15T14:48:26.346Z,101070.19
2023-11-15T14:50:59.496Z,101073.06
2023-11-15T14:53:55.658Z,101061.66
2023-11-15T14:56:29.764Z,101071.59
2023-11-15T15:01:58.555Z,101087.16
2023-11-15T15:04:49.962Z,101068.38
2023-11-15T15:07:37.822Z,101074.38
2023-11-15T15:11:37.498Z,101098.28
2023-11-15T16:07:02.005Z,101102.22
2023-11-15T16:09:56.396Z,101110.84
2023-11-15T16:12:24.956Z,101115.09
2023-11-15T16:14:59.256Z,101100.59
2023-11-15T16:17:56.404Z,101103.88
2023-11-15T16:20:57.901Z,101103.03
2023-11-15T16:23:24.431Z,101100.13
2023-11-15T16:28:26.771Z,101105.69
2023-11-15T16:30:55.968Z,101098.41
2023-11-15T16:33:24.397Z,101093.06
2023-11-15T16:36:02.287Z,101093.59
2023-11-15T16:39:02.925Z,101079.91
2023-11-15T16:41:56.701Z,101081.28
2023-11-15T16:44:30.576Z,101088.22
2023-11-15T16:46:59.002Z,101096.84
2023-11-15T16:50:00.213Z,101086.81
2023-11-15T16:52:28.703Z,101084.84
2023-11-15T16:54:57.009Z,101086.94
2023-11-15T16:57:25.555Z,101094.50
2023-11-15T17:02:21.312Z,101106.22
2023-11-15T17:04:55.727Z,101106.94
2023-11-15T17:07:24.126Z,101109.28
2023-11-15T17:09:53.483Z,101091.94
2023-11-15T17:12:23.318Z,101099.75
2023-11-15T17:15:24.116Z,101113.84
2023-11-15T17:17:52.585Z,101135.22
2023-11-15T17:20:21.384Z,101126.00
2023-11-15T17:22:50.040Z,101103.53
2023-11-15T17:25:21.860Z,101095.38
2023-11-15T17:27:52.631Z,101100.50
2023-11-15T17:30:28.377Z,101092.47
2023-11-15T17:33:22.428Z,101088.59
2023-11-15T17:35:51.349Z,101085.94
2023-11-15T17:38:22.660Z,101103.69
2023-11-15T17:40:50.892Z,101097.59
2023-11-15T17:43:24.308Z,101097.38
2023-11-15T17:45:56.355Z,101097.38
2023-11-15T17:48:25.497Z,101099.06
2023-11-15T17:53:43.090Z,101081.81
2023-11-15T17:56:23.106Z,101118.06
2023-11-15T17:58:53.501Z,101101.06
2023-11-15T18:01:23.058Z,101093.75
2023-11-15T18:03:51.625Z,101092.78
2023-11-15T18:11:57.905Z,101052.69
2023-11-15T18:15:37.712Z,101052.31
2023-11-15T18:17:26.457Z,101035.91
2023-11-15T18:20:25.652Z,101040.16
2023-11-15T18:22:56.253Z,101057.28
2023-11-15T18:25:26.454Z,101065.44
2023-11-15T18:34:31.575Z,101042.09
2023-11-15T18:37:32.688Z,101033.50
2023-11-15T18:40:25.586Z,101008.56
2023-11-15T18:43:20.307Z,101024.09
2023-11-15T18:45:49.705Z,101013.63
2023-11-15T18:48:26.832Z,101021.16
2023-11-15T18:53:37.402Z,100993.97
2023-11-15T18:56:10.235Z,101000.03
2023-11-15T18:59:23.763Z,100990.78
2023-11-15T19:01:52.201Z,100992.84
2023-11-15T19:04:20.864Z,100993.09
2023-11-15T19:06:51.726Z,100995.19
2023-11-15T19:09:25.392Z,100988.13
2023-11-15T19:11:57.645Z,100979.38
2023-11-15T19:14:26.959Z,100965.13
2023-11-15T19:16:55.318Z,100964.41
2023-11-15T19:19:24.893Z,100972.31
2023-11-15T19:21:53.608Z,100982.06
2023-11-15T19:24:22.853Z,100975.72
2023-11-15T19:26:51.977Z,100970.50
2023-11-15T19:29:20.319Z,100990.09
2023-11-15T19:31:53.844Z,100977.56
2023-11-15T19:34:25.213Z,100972.81
2023-11-15T19:36:54.615Z,100953.81
2023-11-15T19:39:23.130Z,100941.81
2023-11-15T19:41:52.456Z,100932.81
2023-11-15T19:44:20.894Z,100933.78
2023-11-15T19:46:49.306Z,100941.72
2023-11-15T19:49:21.628Z,100931.84
2023-11-15T19:51:53.445Z,100914.81
2023-11-15T19:54:23.649Z,100919.44
2023-11-15T19:56:52.586Z,100903.38
2023-11-15T19:59:21.010Z,100893.63
2023-11-15T20:01:52.484Z,100886.47
2023-11-15T20:04:21.876Z,100886.19
2023-11-15T20:06:51.831Z,100887.78
2023-11-15T20:09:20.171Z,100890.56
2023-11-15T20:11:50.032Z,100884.22
2023-11-15T20:14:22.693Z,100862.66
2023-11-15T20:19:40.423Z,100858.34
2023-11-15T20:22:10.035Z,100860.88
2023-11-15T20:24:39.868Z,100864.31
2023-11-15T20:27:10.074Z,100840.91
2023-11-15T20:29:40.688Z,100838.22
2023-11-15T20:32:09.910Z,100831.06
2023-11-15T20:34:39.930Z,100829.22
2023-11-15T20:37:08.746Z,100822.75
2023-11-15T20:39:38.377Z,100816.97
2023-11-15T20:42:08.430Z,100813.06
2023-11-15T20:44:49.367Z,100811.06
2023-11-15T20:47:21.138Z,100821.22
2023-11-15T20:49:53.217Z,100823.78
2023-11-15T20:52:22.031Z,100826.88
2023-11-15T20:54:50.779Z,100815.03
2023-11-15T20:57:19.087Z,100812.97
2023-11-15T20:59:47.993Z,100817.03
2023-11-15T21:02:17.074Z,100817.91
2023-11-15T21:04:46.103Z,100816.47
2023-11-15T21:07:15.500Z,100819.16
2023-11-15T21:09:50.267Z,100814.63
2023-11-15T21:12:20.269Z,100817.31
2023-11-15T21:14:49.720Z,100818.31
2023-11-15T21:17:18.657Z,100812.09
2023-11-15T21:19:47.175Z,100815.38
2023-11-15T21:22:50.754Z,100809.72
2023-11-15T21:25:19.193Z,100808.63
2023-11-15T21:27:47.578Z,100814.53
2023-11-15T21:30:18.314Z,100814.53
2023-11-15T21:32:50.080Z,100806.38
2023-11-15T21:35:19.390Z,100803.53
2023-11-15T21:37:50.756Z,100797.06
2023-11-15T21:40:20.524Z,100802.44
2023-11-15T21:42:50.670Z,100809.50
2023-11-15T21:45:22.025Z,100818.50
2023-11-15T21:47:51.105Z,100822.31
2023-11-15T21:53:52.304Z,100825.25
2023-11-15T21:56:22.685Z,100815.09
2023-11-15T22:01:56.375Z,100810.00
2023-11-15T22:04:27.604Z,100804.06
2023-11-15T22:07:02.115Z,100814.22
2023-11-15T22:12:15.095Z,100801.09
2023-11-15T22:14:51.315Z,100804.47
2023-11-15T22:17:19.703Z,100797.41
2023-11-15T22:19:48.008Z,100797.41
2023-11-15T22:22:18.589Z,100796.56
2023-11-15T22:24:47.995Z,100796.69
2023-11-15T22:27:16.845Z,100786.81
2023-11-15T22:29:52.046Z,100796.69
2023-11-15T22:32:21.334Z,100792.31
2023-11-15T22:34:49.899Z,100792.44
2023-11-15T22:37:18.274Z,100793.31
2023-11-15T22:39:47.359Z,100795.00
2023-11-15T22:42:17.080Z,100791.34
2023-11-15T22:44:45.954Z,100786.81
2023-11-15T22:47:15.068Z,100787.69
2023-11-15T22:49:44.024Z,100791.22
2023-11-15T22:52:12.883Z,100784.13
2023-11-15T22:54:41.879Z,100782.47
2023-11-15T22:57:10.890Z,100769.91
2023-11-15T22:59:52.143Z,100769.91
2023-11-15T23:02:22.345Z,100775.41
2023-11-15T23:04:51.186Z,100769.91
2023-11-15T23:07:22.438Z,100764.69
2023-11-15T23:09:51.905Z,100765.53
2023-11-15T23:12:20.718Z,100763.84
2023-11-15T23:14:50.013Z,100769.22
2023-11-15T23:17:18.839Z,100771.16
2023-11-15T23:19:47.244Z,100779.19
2023-11-15T23:22:16.501Z,100781.88
2023-11-15T23:24:45.879Z,100788.06
2023-11-15T23:27:19.261Z,100785.38
2023-11-15T23:29:48.594Z,100777.47
2023-11-15T23:32:18.756Z,100777.47
2023-11-15T23:34:57.324Z,100772.13
2023-11-15T23:38:35.140Z,100779.19
